Time,TemperatureF,DewpointF,PressureIn,WindDirection,WindDirectionDegrees,WindSpeedMPH,WindSpeedGustMPH,Humidity,HourlyPrecipIn,Conditions,Clouds,dailyrainin,SoftwareType,DateUTC
2013-08-08 00:00:00,72.0,-99.9,29.91,West,260,12.0,-999.0,-999,-99.99,,,-99.99,,2013-08-08 04:00:00,
2013-08-08 00:44:00,72.0,-99.9,29.91,West,260,12.0,-999.0,-999,-99.99,,,-99.99,,2013-08-08 04:44:00,
2013-08-08 00:53:00,72.0,-99.9,29.91,West,260,12.0,-999.0,-999,-99.99,,,-99.99,,2013-08-08 04:53:00,
2013-08-08 01:00:00,70.0,-99.9,29.94,NE,40,17.0,-999.0,-999,-99.99,,,-99.99,,2013-08-08 05:00:00,
2013-08-08 01:43:00,70.0,-99.9,29.94,NE,40,17.0,-999.0,-999,-99.99,,,-99.99,,2013-08-08 05:43:00,
2013-08-08 01:52:00,70.0,-99.9,29.94,NE,40,17.0,-999.0,-999,-99.99,,,-99.99,,2013-08-08 05:52:00,
2013-08-08 02:00:00,69.0,-99.9,29.94,NNE,30,18.0,-999.0,-999,-99.99,,,-99.99,,2013-08-08 06:00:00,
2013-08-08 02:43:00,69.0,-99.9,29.94,NNE,30,18.0,-999.0,-999,-99.99,,,-99.99,,2013-08-08 06:43:00,
2013-08-08 02:52:00,69.0,-99.9,29.94,NNE,30,18.0,-999.0,-999,-99.99,,,-99.99,,2013-08-08 06:52:00,
2013-08-08 05:00:00,65.0,-99.9,29.98,NNW,330,20.0,-999.0,-999,-99.99,,,-99.99,,2013-08-08 09:00:00,
2013-08-08 05:32:00,65.0,-99.9,29.98,NNW,330,20.0,-999.0,-999,-99.99,,,-99.99,,2013-08-08 09:32:00,
2013-08-08 05:43:00,65.0,-99.9,29.98,NNW,330,20.0,-999.0,-999,-99.99,,,-99.99,,2013-08-08 09:43:00,
2013-08-08 05:53:00,65.0,-99.9,29.98,NNW,330,20.0,-999.0,-999,-99.99,,,-99.99,,2013-08-08 09:53:00,
2013-08-08 11:00:00,66.0,50.0,30.05,North,10,14.0,-999.0,56,-99.99,,,-99.99,,2013-08-08 15:00:00,
2013-08-08 11:22:00,66.0,50.0,30.05,North,10,14.0,-999.0,56,-99.99,,,-99.99,,2013-08-08 15:22:00,
2013-08-08 11:32:00,66.0,50.0,30.05,North,10,14.0,-999.0,56,-99.99,,,-99.99,,2013-08-08 15:32:00,
2013-08-08 11:43:00,66.0,50.0,30.05,North,10,14.0,-999.0,56,-99.99,,,-99.99,,2013-08-08 15:43:00,
2013-08-08 11:52:00,66.0,50.0,30.05,North,10,14.0,-999.0,56,-99.99,,,-99.99,,2013-08-08 15:52:00,
2013-08-08 13:00:00,65.0,-99.9,30.06,North,350,9.0,-999.0,-999,-99.99,,,-99.99,,2013-08-08 17:00:00,
2013-08-08 13:43:00,65.0,-99.9,30.06,North,350,9.0,-999.0,-999,-99.99,,,-99.99,,2013-08-08 17:43:00,
2013-08-08 13:52:00,65.0,-99.9,30.06,North,350,9.0,-999.0,-999,-99.99,,,-99.99,,2013-08-08 17:52:00,
2013-08-08 14:00:00,71.0,-99.9,30.05,North,360,3.0,-999.0,-999,-99.99,,,-99.99,,2013-08-08 18:00:00,
2013-08-08 14:43:00,71.0,-99.9,30.05,North,360,3.0,-999.0,-999,-99.99,,,-99.99,,2013-08-08 18:43:00,
2013-08-08 14:53:00,71.0,-99.9,30.05,North,360,3.0,-999.0,-999,-99.99,,,-99.99,,2013-08-08 18:53:00,
2013-08-08 19:00:00,77.0,-99.9,30.03,SSE,150,3.0,-999.0,-999,-99.99,,,-99.99,,2013-08-08 23:00:00,
2013-08-08 19:37:00,77.0,-99.9,30.03,SSE,150,3.0,-999.0,-999,-99.99,,,-99.99,,2013-08-08 23:37:00,
2013-08-08 19:51:00,77.0,-99.9,30.03,SSE,150,3.0,-999.0,-999,-99.99,,,-99.99,,2013-08-08 23:51:00,